Terminal Aerodrome Forecast
Issued by NWS

Home | Current Version | Previous Version | Graphics & Text | Print | Product List | Glossary On
Versions: 1 2 3 4 5 6 7 8 9 10 11 12 13 14
966
FTUS43 KICT 251739
TAFRSL
TAF
KRSL 251739Z 2518/2618 22008KT P6SM FEW100 SCT250
     FM260600 18009KT P6SM BKN110
     FM261100 12005KT P6SM BKN150
     FM261400 32004KT P6SM SCT200=

USA.gov is the U.S. government's official web portal to all federal, state and local government web resources and services.